Time;durP1;ratioP1;P1;durP2;ratioP2;P2;SDS_P1;SDS_P2;PMS_P1;PMS_P2;Temp;Humidity;BMP_temperature;BMP_pressure;BME280_temperature;BME280_humidity;BME280_pressure;Samples;Min_cycle;Max_cycle;Signal;HPM_P1;HPM_P2
2022/11/24 00:00:10;;;;;;;0.00;0.00;;;8.30;99.90;;;;;;5013385;28;20546;-64
2022/11/24 00:02:35;;;;;;;0.00;0.00;;;8.40;99.90;;;;;;5006825;28;20496;-65
2022/11/24 00:05:01;;;;;;;0.00;0.00;;;8.50;99.90;;;;;;5006908;28;20026;-65
2022/11/24 00:07:27;;;;;;;0.00;0.00;;;8.60;99.90;;;;;;5010779;28;20030;-64
2022/11/24 00:09:52;;;;;;;0.00;0.00;;;8.60;99.90;;;;;;5007821;28;20462;-65
2022/11/24 00:12:18;;;;;;;0.00;0.00;;;8.60;99.90;;;;;;5010070;28;21625;-65
2022/11/24 00:14:45;;;;;;;0.00;0.00;;;8.50;99.90;;;;;;5008849;28;20065;-65
2022/11/24 00:17:11;;;;;;;0.00;0.00;;;8.60;99.90;;;;;;5007911;28;20476;-65
2022/11/24 00:19:37;;;;;;;0.00;0.00;;;8.60;99.90;;;;;;5007849;28;20038;-66
2022/11/24 00:22:02;;;;;;;0.00;0.00;;;8.60;99.90;;;;;;5006560;28;20652;-64
2022/11/24 00:24:28;;;;;;;0.00;0.00;;;8.70;99.90;;;;;;5007679;28;20102;-65
2022/11/24 00:26:53;;;;;;;0.00;0.00;;;8.70;99.90;;;;;;5011783;28;20402;-64
2022/11/24 00:29:19;;;;;;;0.00;0.00;;;8.60;99.90;;;;;;5010717;28;20022;-65
2022/11/24 00:31:45;;;;;;;0.00;0.00;;;8.50;99.90;;;;;;5011108;28;20041;-64
2022/11/24 00:34:13;;;;;;;0.00;0.00;;;8.50;99.90;;;;;;5006218;28;20033;-65
2022/11/24 00:36:40;;;;;;;0.00;0.00;;;8.40;99.90;;;;;;5008903;28;20042;-64
2022/11/24 00:39:16;;;;;;;0.00;0.00;;;8.40;99.90;;;;;;5007925;28;20042;-66
2022/11/24 00:41:42;;;;;;;0.00;0.00;;;8.40;99.90;;;;;;5008889;28;20037;-66
2022/11/24 00:44:08;;;;;;;0.00;0.00;;;8.30;99.90;;;;;;5011202;28;20033;-66
2022/11/24 00:46:34;;;;;;;;;;;8.40;99.90;;;;;;5009961;28;20041;-65
2022/11/24 00:49:00;;;;;;;0.00;0.00;;;8.50;99.90;;;;;;5007070;28;20323;-67
2022/11/24 00:51:29;;;;;;;0.00;0.00;;;8.40;99.90;;;;;;5005377;28;20140;-66
2022/11/24 00:53:55;;;;;;;0.00;0.00;;;8.50;99.90;;;;;;5006053;28;20037;-65
2022/11/24 00:56:21;;;;;;;0.00;0.00;;;8.50;99.90;;;;;;5004587;28;20376;-65
2022/11/24 00:58:47;;;;;;;0.00;0.00;;;8.40;99.90;;;;;;5006686;28;20034;-66
2022/11/24 01:01:15;;;;;;;0.00;0.00;;;8.30;99.90;;;;;;5005005;28;20042;-65
2022/11/24 01:03:41;;;;;;;0.00;0.00;;;8.30;99.90;;;;;;5005630;28;20062;-66
2022/11/24 01:06:13;;;;;;;;;;;8.20;99.90;;;;;;5008915;28;20103;-65
2022/11/24 01:08:40;;;;;;;0.00;0.00;;;8.20;99.90;;;;;;5008443;28;19909;-65
2022/11/24 01:11:17;;;;;;;0.00;0.00;;;8.10;99.90;;;;;;5008914;28;20030;-66
2022/11/24 01:13:46;;;;;;;0.00;0.00;;;8.00;99.90;;;;;;5022052;28;20030;-64
2022/11/24 01:16:20;;;;;;;0.00;0.00;;;8.00;99.90;;;;;;5008510;28;20038;-65
2022/11/24 01:18:46;;;;;;;0.00;0.00;;;8.00;99.90;;;;;;5009796;28;20041;-65
2022/11/24 01:21:12;;;;;;;0.00;0.00;;;8.00;99.90;;;;;;5009201;28;20655;-65
2022/11/24 01:23:38;;;;;;;0.00;0.00;;;7.90;99.90;;;;;;5010012;28;20818;-64
2022/11/24 01:26:06;;;;;;;0.00;0.00;;;7.90;99.90;;;;;;5017360;28;20046;-65
2022/11/24 01:28:32;;;;;;;0.00;0.00;;;7.90;99.90;;;;;;5006293;28;20116;-64
2022/11/24 01:30:59;;;;;;;0.00;0.00;;;7.90;99.90;;;;;;5008883;28;20166;-66
2022/11/24 01:33:25;;;;;;;0.00;0.00;;;8.00;99.90;;;;;;5007901;28;20042;-65
2022/11/24 01:35:50;;;;;;;0.00;0.00;;;8.00;99.90;;;;;;5010243;28;20024;-63
2022/11/24 01:38:16;;;;;;;0.00;0.00;;;8.10;99.90;;;;;;5008810;28;20069;-64
2022/11/24 01:40:42;;;;;;;0.00;0.00;;;8.00;99.90;;;;;;5007519;28;20116;-63
2022/11/24 01:43:19;;;;;;;0.00;0.00;;;8.00;99.90;;;;;;5007133;28;20476;-63
2022/11/24 01:45:46;;;;;;;0.00;0.00;;;8.10;99.90;;;;;;5005974;28;20404;-64
2022/11/24 01:48:28;;;;;;;0.00;0.00;;;8.10;99.90;;;;;;5006899;28;20018;-64
2022/11/24 01:51:17;;;;;;;0.00;0.00;;;8.20;99.90;;;;;;5005569;28;20029;-64
2022/11/24 01:53:48;;;;;;;0.00;0.00;;;8.20;99.90;;;;;;5005666;28;20270;-64
2022/11/24 01:56:14;;;;;;;0.00;0.00;;;8.30;99.90;;;;;;5000100;28;20030;-63
2022/11/24 01:58:43;;;;;;;0.00;0.00;;;8.30;99.90;;;;;;5002963;28;20048;-63
2022/11/24 02:01:09;;;;;;;0.00;0.00;;;8.30;99.90;;;;;;5007313;28;20117;-63
2022/11/24 02:03:37;;;;;;;;;;;8.30;99.90;;;;;;5008415;28;20151;-63
2022/11/24 02:06:17;;;;;;;0.00;0.00;;;8.30;99.90;;;;;;5005043;28;20595;-63
2022/11/24 02:09:04;;;;;;;0.00;0.00;;;8.30;99.90;;;;;;5003368;28;20022;-63
2022/11/24 02:11:35;;;;;;;0.00;0.00;;;8.30;99.90;;;;;;5005376;28;20026;-63
2022/11/24 02:14:04;;;;;;;0.00;0.00;;;8.30;99.90;;;;;;5006440;28;20037;-62
2022/11/24 02:16:32;;;;;;;0.00;0.00;;;8.30;99.90;;;;;;5004692;28;20480;-65
2022/11/24 02:18:58;;;;;;;0.00;0.00;;;8.20;99.90;;;;;;5009029;28;20033;-63
2022/11/24 02:21:24;;;;;;;0.00;0.00;;;8.20;99.90;;;;;;5006863;28;20030;-64
2022/11/24 02:24:33;;;;;;;0.00;0.00;;;8.20;99.90;;;;;;5005607;28;20084;-65
2022/11/24 02:26:59;;;;;;;0.00;0.00;;;8.30;99.90;;;;;;5011311;28;20034;-63
2022/11/24 02:29:24;;;;;;;0.00;0.00;;;8.30;99.90;;;;;;5002851;28;20029;-64
2022/11/24 02:31:56;;;;;;;0.00;0.00;;;8.30;99.90;;;;;;5008351;28;20054;-65
2022/11/24 02:34:21;;;;;;;0.00;0.00;;;8.40;99.90;;;;;;5004795;28;20025;-64
2022/11/24 02:36:47;;;;;;;0.00;0.00;;;8.30;99.90;;;;;;5005807;28;20084;-64
2022/11/24 02:39:14;;;;;;;0.00;0.00;;;8.30;99.90;;;;;;5007103;28;20129;-64
2022/11/24 02:41:47;;;;;;;0.00;0.00;;;8.30;99.90;;;;;;5008455;28;20038;-64
2022/11/24 02:44:16;;;;;;;0.00;0.00;;;8.30;99.90;;;;;;5008253;28;20026;-65
2022/11/24 02:46:42;;;;;;;0.00;0.00;;;8.20;99.90;;;;;;5005879;28;20021;-65
2022/11/24 02:49:08;;;;;;;0.00;0.00;;;8.20;99.90;;;;;;5006115;28;20383;-64
2022/11/24 02:51:33;;;;;;;0.00;0.00;;;8.20;99.90;;;;;;5005362;28;20436;-65
2022/11/24 02:53:59;;;;;;;0.00;0.00;;;8.20;99.90;;;;;;5003676;28;20032;-65
2022/11/24 02:56:25;;;;;;;0.00;0.00;;;8.10;99.90;;;;;;5003927;28;20038;-66
2022/11/24 02:58:51;;;;;;;0.00;0.00;;;8.10;99.90;;;;;;5004044;28;20026;-65
2022/11/24 03:01:17;;;;;;;0.00;0.00;;;8.10;99.90;;;;;;5005871;28;20049;-64
2022/11/24 03:03:43;;;;;;;0.00;0.00;;;8.10;99.90;;;;;;5004727;28;20040;-64
2022/11/24 03:06:08;;;;;;;0.00;0.00;;;8.10;99.90;;;;;;5009930;28;20030;-65
2022/11/24 03:08:34;;;;;;;0.00;0.00;;;8.10;99.90;;;;;;5010473;28;20061;-64
2022/11/24 03:11:01;;;;;;;0.00;0.00;;;8.10;99.90;;;;;;5007354;28;20049;-64
2022/11/24 03:13:27;;;;;;;0.00;0.00;;;8.10;99.90;;;;;;5005307;28;20488;-65
2022/11/24 03:15:53;;;;;;;0.00;0.00;;;8.10;99.90;;;;;;5007803;28;20211;-64
2022/11/24 03:18:19;;;;;;;0.00;0.00;;;8.10;99.90;;;;;;5009157;28;20026;-63
2022/11/24 03:20:44;;;;;;;0.00;0.00;;;8.10;99.90;;;;;;5006266;28;20497;-64
2022/11/24 03:23:10;;;;;;;0.00;0.00;;;8.20;99.90;;;;;;5008469;28;20819;-64
2022/11/24 03:25:36;;;;;;;0.00;0.00;;;8.20;99.90;;;;;;5004629;28;20152;-65
2022/11/24 03:28:01;;;;;;;0.00;0.00;;;8.30;99.90;;;;;;5006193;28;20053;-65
2022/11/24 03:30:27;;;;;;;0.00;0.00;;;8.30;99.90;;;;;;5007399;28;20034;-64
2022/11/24 03:32:53;;;;;;;0.00;0.00;;;8.20;99.90;;;;;;5008396;28;20480;-64
2022/11/24 03:35:22;;;;;;;0.00;0.00;;;8.20;99.90;;;;;;5010486;28;20026;-64
2022/11/24 03:37:48;;;;;;;0.00;0.00;;;8.10;99.90;;;;;;5008768;28;20034;-64
2022/11/24 03:40:14;;;;;;;0.00;0.00;;;8.00;99.90;;;;;;5010043;28;20097;-65
2022/11/24 03:42:40;;;;;;;0.00;0.00;;;8.00;99.90;;;;;;5011909;28;20492;-64
2022/11/24 03:45:06;;;;;;;0.00;0.00;;;8.00;99.90;;;;;;5005085;28;20048;-65
2022/11/24 03:47:32;;;;;;;;;;;8.10;99.90;;;;;;5007651;28;20037;-65
2022/11/24 03:49:57;;;;;;;0.00;0.00;;;8.10;99.90;;;;;;5010788;28;19932;-65
2022/11/24 03:52:25;;;;;;;0.00;0.00;;;8.10;99.90;;;;;;5010419;28;20029;-65
2022/11/24 03:54:52;;;;;;;0.00;0.00;;;8.00;99.90;;;;;;4999040;28;20030;-65
2022/11/24 03:57:17;;;;;;;0.00;0.00;;;8.10;99.90;;;;;;5011085;28;20025;-65
2022/11/24 03:59:43;;;;;;;0.00;0.00;;;8.10;99.90;;;;;;5008056;28;20453;-64
2022/11/24 04:02:09;;;;;;;0.00;0.00;;;8.10;99.90;;;;;;5000706;28;20516;-64
2022/11/24 04:04:34;;;;;;;0.00;0.00;;;8.10;99.90;;;;;;5004100;28;20044;-64
2022/11/24 04:07:00;;;;;;;0.00;0.00;;;8.10;99.90;;;;;;5006112;28;20036;-65
2022/11/24 04:09:26;;;;;;;0.00;0.00;;;8.20;99.90;;;;;;5004509;28;20029;-64
2022/11/24 04:14:35;;;;;;;0.00;0.00;;;8.20;99.90;;;;;;5011854;28;20092;-65
2022/11/24 04:17:03;;;;;;;0.00;0.00;;;8.20;99.90;;;;;;5012100;28;20472;-64
2022/11/24 04:19:29;;;;;;;0.00;0.00;;;8.20;99.90;;;;;;5012043;28;20046;-65
2022/11/24 04:21:55;;;;;;;0.00;0.00;;;8.20;99.90;;;;;;5010374;28;20038;-65
2022/11/24 04:24:20;;;;;;;0.00;0.00;;;8.10;99.90;;;;;;5011700;28;20041;-65
2022/11/24 04:26:46;;;;;;;0.00;0.00;;;8.10;99.90;;;;;;5009117;28;20571;-64
2022/11/24 04:29:12;;;;;;;0.00;0.00;;;8.20;99.90;;;;;;5011998;28;20041;-65
2022/11/24 04:31:37;;;;;;;0.00;0.00;;;8.30;99.90;;;;;;5011381;28;20030;-65
2022/11/24 04:34:03;;;;;;;0.00;0.00;;;8.20;99.90;;;;;;5016905;28;20120;-65
2022/11/24 04:36:29;;;;;;;0.00;0.00;;;8.20;99.90;;;;;;5009810;28;20029;-64
2022/11/24 04:38:55;;;;;;;0.00;0.00;;;8.20;99.90;;;;;;5013612;28;20057;-64
2022/11/24 04:41:20;;;;;;;0.00;0.00;;;8.20;99.90;;;;;;5015139;28;20088;-65
2022/11/24 04:43:49;;;;;;;0.00;0.00;;;8.30;99.90;;;;;;5016111;28;20034;-65
2022/11/24 04:46:15;;;;;;;0.00;0.00;;;8.30;99.90;;;;;;5013536;28;20052;-65
2022/11/24 04:48:41;;;;;;;0.00;0.00;;;8.30;99.90;;;;;;5016227;28;20468;-65
2022/11/24 04:51:06;;;;;;;0.00;0.00;;;8.30;99.90;;;;;;5017567;28;20073;-64
2022/11/24 04:53:32;;;;;;;0.00;0.00;;;8.30;99.90;;;;;;5010592;28;20053;-66
2022/11/24 04:55:57;;;;;;;0.00;0.00;;;8.40;99.90;;;;;;5015030;28;20048;-65
2022/11/24 04:58:23;;;;;;;0.00;0.00;;;8.30;99.90;;;;;;5013060;28;20034;-65
2022/11/24 05:00:49;;;;;;;0.00;0.00;;;8.30;99.90;;;;;;5013889;28;20760;-66
2022/11/24 05:03:14;;;;;;;0.00;0.00;;;8.30;99.90;;;;;;5013950;28;20038;-66
2022/11/24 05:05:40;;;;;;;0.00;0.00;;;8.30;99.90;;;;;;5018445;28;20511;-65
2022/11/24 05:08:06;;;;;;;0.00;0.00;;;8.30;99.90;;;;;;5016253;28;20029;-65
2022/11/24 05:10:34;;;;;;;0.00;0.00;;;8.30;99.90;;;;;;5015718;28;20127;-65
2022/11/24 05:13:11;;;;;;;0.00;0.00;;;8.20;99.90;;;;;;5011192;28;20100;-65
2022/11/24 05:15:38;;;;;;;;;;;8.20;99.90;;;;;;5006831;28;20033;-65
2022/11/24 05:18:05;;;;;;;0.00;0.00;;;8.20;99.90;;;;;;5011654;28;20364;-65
2022/11/24 05:20:31;;;;;;;0.00;0.00;;;8.30;99.90;;;;;;5013645;28;20034;-64
2022/11/24 05:23:01;;;;;;;0.00;0.00;;;8.20;99.90;;;;;;5012118;28;20855;-65
2022/11/24 05:25:27;;;;;;;0.00;0.00;;;8.30;99.90;;;;;;5007233;28;20770;-66
2022/11/24 05:27:53;;;;;;;0.00;0.00;;;8.30;99.90;;;;;;5010557;28;20181;-65
2022/11/24 05:30:18;;;;;;;0.00;0.00;;;8.40;99.90;;;;;;5012868;28;20092;-66
2022/11/24 05:32:44;;;;;;;0.00;0.00;;;8.30;99.90;;;;;;5012273;28;20018;-65
2022/11/24 05:35:10;;;;;;;0.00;0.00;;;8.30;99.90;;;;;;5007745;28;20045;-66
2022/11/24 05:37:36;;;;;;;;;;;8.40;99.90;;;;;;5013455;28;20034;-65
2022/11/24 05:40:03;;;;;;;0.00;0.00;;;8.40;99.90;;;;;;5010822;28;20287;-63
2022/11/24 05:42:40;;;;;;;0.00;0.00;;;8.40;99.90;;;;;;5007186;28;20432;-65
2022/11/24 05:45:10;;;;;;;0.00;0.00;;;8.40;99.90;;;;;;5008342;28;20065;-65
2022/11/24 05:47:36;;;;;;;0.00;0.00;;;8.40;99.90;;;;;;5009237;28;20058;-64
2022/11/24 05:50:02;;;;;;;0.00;0.00;;;8.40;99.90;;;;;;5016550;28;20116;-66
2022/11/24 05:52:27;;;;;;;0.00;0.00;;;8.40;99.90;;;;;;5007820;28;20026;-65
2022/11/24 05:54:53;;;;;;;0.00;0.00;;;8.40;99.90;;;;;;5010639;28;20092;-65
2022/11/24 05:57:18;;;;;;;0.00;0.00;;;8.50;99.90;;;;;;5008330;28;20124;-66
2022/11/24 05:59:44;;;;;;;0.00;0.00;;;8.40;99.90;;;;;;5012945;28;20026;-64
2022/11/24 06:02:10;;;;;;;0.00;0.00;;;8.40;99.90;;;;;;5010102;28;20040;-66
2022/11/24 06:04:36;;;;;;;0.00;0.00;;;8.40;99.90;;;;;;5012268;28;20038;-66
2022/11/24 06:07:03;;;;;;;0.00;0.00;;;8.40;99.90;;;;;;5012629;28;20040;-66
2022/11/24 06:09:28;;;;;;;0.00;0.00;;;8.40;99.90;;;;;;5010055;28;20038;-66
2022/11/24 06:11:54;;;;;;;0.00;0.00;;;8.50;99.90;;;;;;5011144;28;20076;-65
2022/11/24 06:14:20;;;;;;;;;;;8.50;99.90;;;;;;5011614;28;20035;-65
2022/11/24 06:16:46;;;;;;;0.00;0.00;;;8.40;99.90;;;;;;5012169;28;20371;-64
2022/11/24 06:19:11;;;;;;;0.00;0.00;;;8.40;99.90;;;;;;5009267;28;20034;-65
2022/11/24 06:21:37;;;;;;;0.00;0.00;;;8.40;99.90;;;;;;5011570;28;20080;-66
2022/11/24 06:24:03;;;;;;;0.00;0.00;;;8.40;99.90;;;;;;5005878;28;20113;-66
2022/11/24 06:26:29;;;;;;;0.00;0.00;;;8.40;99.90;;;;;;5009684;28;20038;-65
2022/11/24 06:28:55;;;;;;;0.00;0.00;;;8.40;99.90;;;;;;5016540;28;20496;-65
2022/11/24 06:31:20;;;;;;;0.00;0.00;;;8.30;99.90;;;;;;5013643;28;20030;-66
2022/11/24 06:33:46;;;;;;;0.00;0.00;;;8.20;99.90;;;;;;5018713;28;20113;-65
2022/11/24 06:36:13;;;;;;;0.00;0.00;;;8.20;99.90;;;;;;5009322;28;20095;-64
2022/11/24 06:38:39;;;;;;;0.00;0.00;;;8.20;99.90;;;;;;5007727;28;20030;-65
2022/11/24 06:41:08;;;;;;;0.00;0.00;;;8.30;99.90;;;;;;5012692;28;20037;-64
2022/11/24 06:43:34;;;;;;;0.00;0.00;;;8.30;99.90;;;;;;5012390;28;20104;-65
2022/11/24 06:46:01;;;;;;;0.00;0.00;;;8.30;99.90;;;;;;5012425;28;20029;-65
2022/11/24 06:48:27;;;;;;;0.00;0.00;;;8.20;99.90;;;;;;5011142;28;20038;-64
2022/11/24 06:50:57;;;;;;;0.00;0.00;;;8.10;99.90;;;;;;5008996;28;20029;-66
2022/11/24 06:53:22;;;;;;;0.00;0.00;;;8.20;99.90;;;;;;5006722;28;20034;-66
2022/11/24 06:55:49;;;;;;;0.00;0.00;;;8.20;99.90;;;;;;5011321;28;20041;-65
2022/11/24 06:58:15;;;;;;;0.00;0.00;;;8.20;99.90;;;;;;5010205;28;20507;-65
2022/11/24 07:00:40;;;;;;;0.00;0.00;;;8.30;99.90;;;;;;5002043;28;20062;-64
2022/11/24 07:03:06;;;;;;;0.00;0.00;;;8.40;99.90;;;;;;5014245;28;20668;-64
2022/11/24 07:05:32;;;;;;;0.00;0.00;;;8.50;99.90;;;;;;5011722;28;20030;-66
2022/11/24 07:08:00;;;;;;;0.00;0.00;;;8.40;99.90;;;;;;5012178;28;20083;-66
2022/11/24 07:10:26;;;;;;;0.00;0.00;;;8.40;99.90;;;;;;5009321;28;20022;-65
2022/11/24 07:12:52;;;;;;;0.00;0.00;;;8.40;99.90;;;;;;5011850;28;20038;-64
2022/11/24 07:15:17;;;;;;;0.00;0.00;;;8.40;99.90;;;;;;5011577;28;20388;-67
2022/11/24 07:17:43;;;;;;;0.00;0.00;;;8.40;99.90;;;;;;5011955;28;20483;-65
2022/11/24 07:20:09;;;;;;;0.00;0.00;;;8.50;99.90;;;;;;5012000;28;20128;-65
2022/11/24 07:22:35;;;;;;;0.00;0.00;;;8.50;99.90;;;;;;5010153;28;20092;-66
2022/11/24 07:25:01;;;;;;;0.00;0.00;;;8.60;99.90;;;;;;5007464;28;20416;-65
2022/11/24 07:27:27;;;;;;;0.00;0.00;;;8.70;99.90;;;;;;5006082;28;20108;-65
2022/11/24 07:29:53;;;;;;;0.00;0.00;;;8.80;99.90;;;;;;5005971;28;20157;-65
2022/11/24 07:32:18;;;;;;;0.00;0.00;;;8.80;99.90;;;;;;5010203;28;20053;-65
2022/11/24 07:34:44;;;;;;;0.00;0.00;;;8.90;99.90;;;;;;5010031;28;20030;-66
2022/11/24 07:37:09;;;;;;;0.00;0.00;;;9.00;99.90;;;;;;5002452;28;20038;-65
2022/11/24 07:39:35;;;;;;;0.00;0.00;;;9.00;99.90;;;;;;5009471;28;20026;-66
2022/11/24 07:42:02;;;;;;;0.00;0.00;;;9.10;99.90;;;;;;5010147;28;20034;-67
2022/11/24 07:44:28;;;;;;;0.00;0.00;;;9.00;99.90;;;;;;4997247;28;20033;-66
2022/11/24 07:46:53;;;;;;;0.00;0.00;;;9.00;99.90;;;;;;5010183;28;20100;-68
2022/11/24 07:49:19;;;;;;;0.00;0.00;;;9.00;99.90;;;;;;5008532;28;20038;-68
2022/11/24 07:51:44;;;;;;;0.00;0.00;;;9.00;99.90;;;;;;5006148;28;20030;-67
2022/11/24 07:54:10;;;;;;;0.00;0.00;;;9.00;99.90;;;;;;5009870;28;20045;-67
2022/11/24 07:56:36;;;;;;;0.00;0.00;;;8.90;99.90;;;;;;5012880;28;20029;-67
2022/11/24 07:59:03;;;;;;;0.00;0.00;;;9.00;99.90;;;;;;5011638;28;20025;-66
2022/11/24 08:01:28;;;;;;;0.00;0.00;;;9.00;99.90;;;;;;5000564;28;20120;-66
2022/11/24 08:03:54;;;;;;;0.00;0.00;;;9.10;99.90;;;;;;5002897;28;20079;-65
2022/11/24 08:06:20;;;;;;;0.00;0.00;;;9.00;99.90;;;;;;5012729;28;20555;-66
2022/11/24 08:08:46;;;;;;;0.00;0.00;;;9.00;99.90;;;;;;5014871;28;20022;-67
2022/11/24 08:11:15;;;;;;;0.00;0.00;;;9.10;99.90;;;;;;5010785;28;20034;-67
2022/11/24 08:13:41;;;;;;;0.00;0.00;;;9.20;99.90;;;;;;5011957;28;20490;-66
2022/11/24 08:16:08;;;;;;;;;;;9.20;99.90;;;;;;5020520;28;20492;-67
2022/11/24 08:18:35;;;;;;;0.00;0.00;;;9.20;99.90;;;;;;5008652;28;19920;-66
2022/11/24 08:21:04;;;;;;;0.00;0.00;;;9.20;99.90;;;;;;5014602;28;20041;-67
2022/11/24 08:23:30;;;;;;;0.00;0.00;;;9.30;99.90;;;;;;5015760;28;20100;-66
2022/11/24 08:26:02;;;;;;;0.00;0.00;;;9.30;99.90;;;;;;5013420;28;20041;-67
2022/11/24 08:28:27;;;;;;;0.00;0.00;;;9.30;99.90;;;;;;5010358;28;20444;-66
2022/11/24 08:31:04;;;;;;;0.00;0.00;;;9.40;99.90;;;;;;5003634;28;20032;-66
2022/11/24 08:33:30;;;;;;;0.00;0.00;;;9.50;99.90;;;;;;5012848;28;20038;-67
2022/11/24 08:35:55;;;;;;;0.00;0.00;;;9.60;99.90;;;;;;5005197;28;20045;-65
2022/11/24 08:38:21;;;;;;;0.00;0.00;;;9.70;99.90;;;;;;5008491;28;20028;-67
2022/11/24 08:40:46;;;;;;;0.00;0.00;;;9.70;99.90;;;;;;5008778;28;20033;-67
2022/11/24 08:43:12;;;;;;;0.00;0.00;;;9.70;99.90;;;;;;5009701;28;20042;-67
2022/11/24 08:45:38;;;;;;;0.00;0.00;;;9.80;99.90;;;;;;5006680;28;20037;-68
2022/11/24 08:48:05;;;;;;;0.00;0.00;;;9.90;99.90;;;;;;5009154;28;20084;-67
2022/11/24 08:50:32;;;;;;;0.00;0.00;;;9.90;99.90;;;;;;5009594;28;20113;-67
2022/11/24 08:52:58;;;;;;;0.00;0.00;;;10.10;99.90;;;;;;5007346;28;20030;-65
2022/11/24 08:55:24;;;;;;;0.00;0.00;;;10.10;99.90;;;;;;5006326;28;20029;-67
2022/11/24 08:57:49;;;;;;;0.00;0.00;;;10.20;99.90;;;;;;5008152;28;20030;-67
2022/11/24 09:00:21;;;;;;;0.00;0.00;;;10.30;99.90;;;;;;5007043;28;20108;-67
2022/11/24 09:02:58;;;;;;;0.00;0.00;;;10.30;99.90;;;;;;5007425;28;20436;-68
2022/11/24 09:05:24;;;;;;;0.00;0.00;;;10.40;99.90;;;;;;5012008;28;20026;-67
2022/11/24 09:07:50;;;;;;;0.00;0.00;;;10.50;99.90;;;;;;5008082;28;20053;-66
2022/11/24 09:10:16;;;;;;;0.00;0.00;;;10.70;99.90;;;;;;5013468;28;20392;-68
2022/11/24 09:12:44;;;;;;;0.00;0.00;;;10.70;99.90;;;;;;5005897;28;20026;-67
2022/11/24 09:15:10;;;;;;;0.00;0.00;;;10.90;99.90;;;;;;5013344;28;20026;-67
2022/11/24 09:17:36;;;;;;;;;;;11.00;99.90;;;;;;5018261;28;20030;-65
2022/11/24 09:20:02;;;;;;;0.00;0.00;;;11.10;99.90;;;;;;5007621;28;19912;-67
2022/11/24 09:22:29;;;;;;;0.00;0.00;;;11.10;99.90;;;;;;5014545;28;20048;-66
2022/11/24 09:24:55;;;;;;;0.00;0.00;;;11.20;99.90;;;;;;5009422;28;20038;-67
2022/11/24 09:27:21;;;;;;;0.00;0.00;;;11.30;99.90;;;;;;5008828;28;20056;-67
2022/11/24 09:29:48;;;;;;;0.00;0.00;;;11.40;99.90;;;;;;5014775;28;20411;-66
2022/11/24 09:32:16;;;;;;;0.00;0.00;;;11.50;99.90;;;;;;5013235;28;20037;-67
2022/11/24 09:34:42;;;;;;;0.00;0.00;;;11.60;99.90;;;;;;5004365;28;20481;-66
2022/11/24 09:37:08;;;;;;;0.00;0.00;;;11.60;99.90;;;;;;5007827;28;20105;-67
2022/11/24 09:39:34;;;;;;;0.00;0.00;;;11.70;99.90;;;;;;5004640;28;20041;-65
2022/11/24 09:42:09;;;;;;;0.00;0.00;;;11.70;99.90;;;;;;5009251;28;20029;-66
2022/11/24 09:44:46;;;;;;;0.00;0.00;;;11.80;99.90;;;;;;5005668;28;20030;-67
2022/11/24 09:47:17;;;;;;;0.00;0.00;;;11.80;99.90;;;;;;5007340;28;20114;-66
2022/11/24 09:50:05;;;;;;;0.00;0.00;;;11.90;99.90;;;;;;5007886;28;20027;-66
2022/11/24 09:52:47;;;;;;;0.00;0.00;;;12.00;99.90;;;;;;5010274;28;20391;-66
2022/11/24 09:55:31;;;;;;;0.00;0.00;;;12.00;99.90;;;;;;5008577;28;20164;-67
2022/11/24 09:58:16;;;;;;;0.00;0.00;;;12.10;99.90;;;;;;5006989;28;20352;-67
2022/11/24 10:00:42;;;;;;;0.00;0.00;;;12.20;99.90;;;;;;5010068;28;20080;-66
2022/11/24 10:03:18;;;;;;;0.00;0.00;;;12.30;99.90;;;;;;5005566;28;20054;-66
2022/11/24 10:05:47;;;;;;;0.00;0.00;;;12.40;99.90;;;;;;5004544;28;20060;-65
2022/11/24 10:08:29;;;;;;;0.00;0.00;;;12.50;99.90;;;;;;5006010;28;20087;-67
2022/11/24 10:11:01;;;;;;;0.00;0.00;;;12.60;99.90;;;;;;5007127;28;20369;-67
2022/11/24 10:13:46;;;;;;;0.00;0.00;;;12.70;99.90;;;;;;5007685;28;20113;-68
2022/11/24 10:16:35;;;;;;;0.00;0.00;;;12.80;99.90;;;;;;5008650;28;20383;-65
2022/11/24 10:19:28;;;;;;;0.00;0.00;;;12.90;99.90;;;;;;5007175;28;20022;-65
2022/11/24 10:22:00;;;;;;;0.00;0.00;;;12.90;99.90;;;;;;5005102;28;20030;-66
2022/11/24 10:25:02;;;;;;;0.00;0.00;;;13.00;99.90;;;;;;5010372;28;20037;-66
2022/11/24 10:27:34;;;;;;;0.00;0.00;;;13.00;99.90;;;;;;5006895;28;20030;-65
2022/11/24 10:30:01;;;;;;;0.00;0.00;;;13.00;99.90;;;;;;5020212;28;20029;-65
2022/11/24 10:32:39;;;;;;;0.00;0.00;;;12.90;99.90;;;;;;5006720;28;20046;-66
2022/11/24 10:35:16;;;;;;;0.00;0.00;;;12.90;99.90;;;;;;5005001;28;20038;-67
2022/11/24 10:37:56;;;;;;;0.00;0.00;;;12.90;99.90;;;;;;5007367;28;20057;-67
2022/11/24 10:40:34;;;;;;;0.00;0.00;;;13.00;99.90;;;;;;5009255;28;20033;-66
2022/11/24 10:43:00;;;;;;;0.00;0.00;;;12.90;99.90;;;;;;5008390;28;20054;-67
2022/11/24 10:45:27;;;;;;;0.00;0.00;;;12.80;99.90;;;;;;5010723;28;20115;-67
2022/11/24 10:47:53;;;;;;;0.00;0.00;;;12.70;99.90;;;;;;5008344;28;20036;-66
2022/11/24 10:50:27;;;;;;;0.00;0.00;;;12.70;99.90;;;;;;5007210;28;22144;-66
2022/11/24 10:53:17;;;;;;;0.00;0.00;;;12.70;99.90;;;;;;5008448;28;20041;-67
2022/11/24 10:56:00;;;;;;;0.00;0.00;;;12.70;99.90;;;;;;5009356;28;20029;-67
2022/11/24 10:58:29;;;;;;;0.00;0.00;;;12.70;99.90;;;;;;5007102;28;20023;-69
2022/11/24 11:00:57;;;;;;;0.00;0.00;;;12.80;99.90;;;;;;5008799;28;20096;-66
2022/11/24 11:03:43;;;;;;;0.00;0.00;;;12.80;99.90;;;;;;5005650;28;20829;-66
2022/11/24 11:06:14;;;;;;;0.00;0.00;;;12.90;99.90;;;;;;5006339;28;20033;-66
2022/11/24 11:08:40;;;;;;;0.00;0.00;;;13.00;99.90;;;;;;5008551;28;20026;-66
2022/11/24 11:11:28;;;;;;;0.00;0.00;;;13.00;99.90;;;;;;5005967;28;20025;-66
2022/11/24 11:13:59;;;;;;;0.00;0.00;;;13.10;99.90;;;;;;5005076;28;20084;-67
2022/11/24 11:16:39;;;;;;;0.00;0.00;;;13.10;99.90;;;;;;5008407;28;20105;-67
2022/11/24 11:19:31;;;;;;;0.00;0.00;;;13.20;99.90;;;;;;5003569;28;20037;-67
2022/11/24 11:22:03;;;;;;;0.00;0.00;;;13.10;99.90;;;;;;5008611;28;20044;-67
2022/11/24 11:24:30;;;;;;;0.00;0.00;;;13.10;99.90;;;;;;5005504;28;20061;-66
2022/11/24 11:26:59;;;;;;;;;;;13.10;99.90;;;;;;5005462;28;20018;-67
2022/11/24 11:29:27;;;;;;;0.00;0.00;;;13.20;99.90;;;;;;5005656;28;20013;-66
2022/11/24 11:32:03;;;;;;;0.00;0.00;;;13.20;99.90;;;;;;5002610;28;20052;-66
2022/11/24 11:34:35;;;;;;;0.00;0.00;;;13.20;99.90;;;;;;5003457;28;20398;-66
2022/11/24 11:37:03;;;;;;;0.00;0.00;;;13.30;99.90;;;;;;5003226;28;20033;-66
2022/11/24 11:39:33;;;;;;;0.00;0.00;;;13.40;99.90;;;;;;5004536;28;20041;-66
2022/11/24 11:42:23;;;;;;;0.00;0.00;;;13.50;99.90;;;;;;5008268;28;20076;-66
2022/11/24 11:45:02;;;;;;;0.00;0.00;;;13.50;99.90;;;;;;5010097;28;20080;-66
2022/11/24 11:48:11;;;;;;;0.00;0.00;;;13.50;99.90;;;;;;5008849;28;20443;-67
2022/11/24 11:50:51;;;;;;;0.00;0.00;;;13.60;99.90;;;;;;5011284;28;20049;-67
2022/11/24 11:53:19;;;;;;;0.00;0.00;;;13.60;99.90;;;;;;5011446;28;20030;-67
2022/11/24 11:56:13;;;;;;;0.00;0.00;;;13.50;99.90;;;;;;5012609;28;20033;-66
2022/11/24 11:58:54;;;;;;;0.00;0.00;;;13.50;99.90;;;;;;5007527;28;20026;-65
2022/11/24 12:01:49;;;;;;;0.00;0.00;;;13.50;99.90;;;;;;5009930;28;20029;-67
2022/11/24 12:04:34;;;;;;;0.00;0.00;;;13.50;99.90;;;;;;5010033;28;20030;-66
2022/11/24 12:07:44;;;;;;;0.00;0.00;;;13.50;99.90;;;;;;5008844;28;20134;-66
2022/11/24 12:10:41;;;;;;;0.00;0.00;;;13.50;99.90;;;;;;5010805;28;20047;-67
2022/11/24 12:13:25;;;;;;;0.00;0.00;;;13.50;99.90;;;;;;5008525;28;20103;-65
2022/11/24 12:15:53;;;;;;;0.00;0.00;;;13.50;99.90;;;;;;5011130;28;20899;-65
2022/11/24 12:18:30;;;;;;;0.00;0.00;;;13.50;99.90;;;;;;5010883;28;20223;-65
2022/11/24 12:21:14;;;;;;;0.00;0.00;;;13.40;99.90;;;;;;5008300;28;20341;-67
2022/11/24 12:24:06;;;;;;;0.00;0.00;;;13.50;99.90;;;;;;5006611;28;20361;-66
2022/11/24 12:26:38;;;;;;;0.00;0.00;;;13.50;99.90;;;;;;5010139;28;20033;-66
2022/11/24 12:29:22;;;;;;;0.00;0.00;;;13.60;99.90;;;;;;5009973;28;20037;-64
2022/11/24 12:32:25;;;;;;;0.00;0.00;;;13.60;99.90;;;;;;5010579;28;20055;-66
2022/11/24 12:35:18;;;;;;;0.00;0.00;;;13.60;99.90;;;;;;5025188;28;20464;-66
2022/11/24 12:38:21;;;;;;;0.00;0.00;;;13.70;99.90;;;;;;5008097;28;20472;-66
2022/11/24 12:41:25;;;;;;;0.00;0.00;;;13.70;99.90;;;;;;5009764;28;20030;-66
2022/11/24 12:43:54;;;;;;;0.00;0.00;;;13.80;99.90;;;;;;5009012;28;20041;-67
2022/11/24 12:46:35;;;;;;;0.00;0.00;;;13.80;99.90;;;;;;4993552;28;20813;-66
2022/11/24 12:49:27;;;;;;;0.00;0.00;;;13.80;99.90;;;;;;5009252;28;20109;-66
2022/11/24 12:52:00;;;;;;;0.00;0.00;;;13.70;99.90;;;;;;5008573;28;20164;-67
2022/11/24 12:54:37;;;;;;;0.00;0.00;;;13.70;99.90;;;;;;5008632;28;20105;-66
2022/11/24 12:57:38;;;;;;;0.00;0.00;;;13.60;99.90;;;;;;5008449;28;20105;-66
2022/11/24 13:00:13;;;;;;;0.00;0.00;;;13.40;99.90;;;;;;5010228;28;20034;-67
2022/11/24 13:03:33;;;;;;;0.00;0.00;;;13.30;99.90;;;;;;5006993;28;20044;-66
2022/11/24 13:06:08;;;;;;;0.00;0.00;;;13.30;99.90;;;;;;5026920;28;20070;-66
2022/11/24 13:08:35;;;;;;;0.00;0.00;;;13.20;99.90;;;;;;5006913;28;20326;-65
2022/11/24 13:11:33;;;;;;;0.00;0.00;;;13.10;99.90;;;;;;5006648;28;20087;-66
2022/11/24 13:14:22;;;;;;;0.00;0.00;;;13.00;99.90;;;;;;5005901;28;20476;-66